createdAt,value
2023-04-23T00:01:40.803Z,27.00
2023-04-23T00:04:09.228Z,26.42
2023-04-23T00:06:36.777Z,26.48
2023-04-23T00:09:04.043Z,27.13
2023-04-23T00:11:30.682Z,28.13
2023-04-23T00:13:57.288Z,28.00
2023-04-23T00:16:24.715Z,29.00
2023-04-23T00:18:51.431Z,27.95
2023-04-23T00:21:17.792Z,29.88
2023-04-23T00:23:44.175Z,29.27
2023-04-23T00:26:10.498Z,27.67
2023-04-23T00:28:36.902Z,28.73
2023-04-23T00:31:03.294Z,28.58
2023-04-23T00:33:29.797Z,29.15
2023-04-23T00:35:56.210Z,29.42
2023-04-23T00:38:22.641Z,27.88
2023-04-23T00:40:49.053Z,28.75
2023-04-23T00:43:15.521Z,28.48
2023-04-23T00:45:42.051Z,29.67
2023-04-23T00:48:08.861Z,29.48
2023-04-23T00:50:35.250Z,28.15
2023-04-23T00:53:01.633Z,28.30
2023-04-23T00:55:28.293Z,28.20
2023-04-23T00:57:55.518Z,29.92
2023-04-23T01:00:22.386Z,26.75
2023-04-23T01:02:50.409Z,27.05
2023-04-23T01:05:18.207Z,27.40
2023-04-23T01:07:46.416Z,28.45
2023-04-23T01:10:13.148Z,27.75
2023-04-23T01:12:39.602Z,28.30
2023-04-23T01:15:08.666Z,27.65
2023-04-23T01:17:35.112Z,27.50
2023-04-23T01:20:01.518Z,27.55
2023-04-23T01:22:27.915Z,26.95
2023-04-23T01:24:54.769Z,25.85
2023-04-23T01:27:22.227Z,26.50
2023-04-23T01:29:49.432Z,25.70
2023-04-23T01:32:17.047Z,24.60
2023-04-23T01:34:44.285Z,25.90
2023-04-23T01:37:11.312Z,24.92
2023-04-23T01:39:37.691Z,25.00
2023-04-23T01:42:07.004Z,25.90
2023-04-23T01:44:33.357Z,23.17
2023-04-23T01:46:59.711Z,24.98
2023-04-23T01:49:26.319Z,24.33
2023-04-23T01:51:52.722Z,23.38
2023-04-23T01:54:19.508Z,24.92
2023-04-23T01:56:45.965Z,24.48
2023-04-23T01:59:12.505Z,25.65
2023-04-23T02:01:46.621Z,27.55
2023-04-23T02:04:14.644Z,26.27
2023-04-23T02:06:43.138Z,26.80
2023-04-23T02:09:09.581Z,28.70
2023-04-23T02:11:35.931Z,26.33
2023-04-23T02:14:04.098Z,27.42
2023-04-23T02:16:31.074Z,28.00
2023-04-23T02:18:57.574Z,28.02
2023-04-23T02:21:24.738Z,27.17
2023-04-23T02:23:51.303Z,24.13
2023-04-23T02:26:19.128Z,27.20
2023-04-23T02:28:46.372Z,27.55
2023-04-23T02:31:12.735Z,25.75
2023-04-23T02:33:39.109Z,26.27
2023-04-23T02:36:05.813Z,25.90
2023-04-23T02:38:32.180Z,25.02
2023-04-23T02:40:58.531Z,26.48
2023-04-23T02:43:24.866Z,24.75
2023-04-23T02:45:51.223Z,24.83
2023-04-23T02:48:18.265Z,25.13
2023-04-23T02:50:44.668Z,25.55
2023-04-23T02:53:11.016Z,26.23
2023-04-23T02:55:37.414Z,24.40
2023-04-23T02:58:03.782Z,26.88
2023-04-23T03:00:30.182Z,26.85
2023-04-23T03:02:56.634Z,21.17
2023-04-23T03:05:23.194Z,27.02
2023-04-23T03:07:49.654Z,26.33
2023-04-23T03:10:16.036Z,23.80
2023-04-23T03:12:42.489Z,22.70
2023-04-23T03:15:09.281Z,24.27
2023-04-23T03:17:35.736Z,27.38
2023-04-23T03:20:02.233Z,25.38
2023-04-23T03:22:28.589Z,27.65
2023-04-23T03:24:54.962Z,23.30
2023-04-23T03:27:21.311Z,24.88
2023-04-23T03:29:47.717Z,22.30
2023-04-23T03:32:14.089Z,19.65
2023-04-23T03:34:40.637Z,23.90
2023-04-23T03:37:07.120Z,24.73
2023-04-23T03:39:33.574Z,24.38
2023-04-23T03:41:59.929Z,25.40
2023-04-23T03:44:26.303Z,22.25
2023-04-23T03:46:52.766Z,22.88
2023-04-23T03:49:19.175Z,24.20
2023-04-23T03:51:45.556Z,25.15
2023-04-23T03:54:11.917Z,24.92
2023-04-23T03:56:38.344Z,24.67
2023-04-23T03:59:04.681Z,23.55
2023-04-23T04:01:32.910Z,23.50
2023-04-23T04:03:59.603Z,22.52
2023-04-23T04:06:26.363Z,22.17
2023-04-23T04:08:52.724Z,24.60
2023-04-23T04:11:19.081Z,21.83
2023-04-23T04:13:45.504Z,21.25
2023-04-23T04:16:11.940Z,21.77
2023-04-23T04:18:39.287Z,22.42
2023-04-23T04:21:05.772Z,22.23
2023-04-23T04:23:33.389Z,20.92
2023-04-23T04:26:00.006Z,21.85
2023-04-23T04:28:26.382Z,20.75
2023-04-23T04:30:54.023Z,20.38
2023-04-23T04:33:20.986Z,18.58
2023-04-23T04:35:49.552Z,20.20
2023-04-23T04:38:16.102Z,18.83
2023-04-23T04:40:42.564Z,20.75
2023-04-23T04:43:09.984Z,19.80
2023-04-23T04:45:36.320Z,18.77
2023-04-23T04:48:02.713Z,19.35
2023-04-23T04:50:29.090Z,18.25
2023-04-23T04:52:55.436Z,19.65
2023-04-23T04:55:21.900Z,18.75
2023-04-23T04:57:48.222Z,20.27
2023-04-23T05:00:29.205Z,19.65
2023-04-23T05:02:57.361Z,18.88
2023-04-23T05:05:25.026Z,17.77
2023-04-23T05:07:51.900Z,19.35
2023-04-23T05:10:18.346Z,17.55
2023-04-23T05:12:44.734Z,18.50
2023-04-23T05:15:13.372Z,16.73
2023-04-23T05:17:40.610Z,17.42
2023-04-23T05:20:10.680Z,16.67
2023-04-23T05:22:41.687Z,16.20
2023-04-23T05:25:09.983Z,16.83
2023-04-23T05:27:36.360Z,15.93
2023-04-23T05:30:05.151Z,16.33
2023-04-23T05:32:32.110Z,16.13
2023-04-23T05:34:59.964Z,16.42
2023-04-23T05:37:26.549Z,15.98
2023-04-23T05:39:52.880Z,15.00
2023-04-23T05:42:19.249Z,14.88
2023-04-23T05:44:45.733Z,14.98
2023-04-23T05:47:13.693Z,14.90
2023-04-23T05:49:40.564Z,14.02
2023-04-23T05:52:07.046Z,14.93
2023-04-23T05:54:33.448Z,14.55
2023-04-23T05:56:59.851Z,13.88
2023-04-23T05:59:26.400Z,14.05
2023-04-23T06:01:53.050Z,14.45
2023-04-23T06:04:20.101Z,13.95
2023-04-23T06:06:46.798Z,14.25
2023-04-23T06:09:13.212Z,14.85
2023-04-23T06:11:39.655Z,14.20
2023-04-23T06:14:06.219Z,15.05
2023-04-23T06:16:32.634Z,14.23
2023-04-23T06:18:59.073Z,13.63
2023-04-23T06:21:27.178Z,13.65
2023-04-23T06:23:54.492Z,13.57
2023-04-23T06:26:20.915Z,13.13
2023-04-23T06:28:47.271Z,13.70
2023-04-23T06:31:13.726Z,12.88
2023-04-23T06:33:40.368Z,13.30
2023-04-23T06:36:09.454Z,12.88
2023-04-23T06:38:35.787Z,12.25
2023-04-23T06:41:03.112Z,12.52
2023-04-23T06:43:29.551Z,12.43
2023-04-23T06:45:56.443Z,12.52
2023-04-23T06:48:22.791Z,12.48
2023-04-23T06:50:49.358Z,12.02
2023-04-23T06:53:16.065Z,11.05
2023-04-23T06:55:42.409Z,12.55
2023-04-23T06:58:08.832Z,11.85
2023-04-23T07:00:35.831Z,11.02
2023-04-23T07:03:02.675Z,12.43
2023-04-23T07:05:29.234Z,12.27
2023-04-23T07:07:55.622Z,12.60
2023-04-23T07:10:22.015Z,10.70
2023-04-23T07:12:48.394Z,10.68
2023-04-23T07:15:14.800Z,9.48
2023-04-23T07:17:41.397Z,10.40
2023-04-23T07:20:11.932Z,8.57
2023-04-23T07:22:38.485Z,10.48
2023-04-23T07:25:05.791Z,8.77
2023-04-23T07:27:32.178Z,9.27
2023-04-23T07:29:58.544Z,8.02
2023-04-23T07:32:27.865Z,8.10
2023-04-23T07:34:56.136Z,8.57
2023-04-23T07:37:22.748Z,8.68
2023-04-23T07:42:15.542Z,7.45
2023-04-23T07:44:41.886Z,7.35
2023-04-23T07:47:08.265Z,5.80
2023-04-23T07:49:34.756Z,7.03
2023-04-23T07:52:01.191Z,7.35
2023-04-23T07:54:27.553Z,7.00
2023-04-23T07:56:53.992Z,7.95
2023-04-23T07:59:20.517Z,7.80
2023-04-23T08:01:46.884Z,7.10
2023-04-23T08:04:14.014Z,6.68
2023-04-23T08:06:41.297Z,6.53
2023-04-23T08:09:07.761Z,6.68
2023-04-23T08:11:34.161Z,6.28
2023-04-23T08:14:01.479Z,5.25
2023-04-23T08:16:28.596Z,5.15
2023-04-23T08:19:05.069Z,6.50
2023-04-23T08:21:33.238Z,4.65
2023-04-23T08:23:59.754Z,5.68
2023-04-23T08:26:26.293Z,5.00
2023-04-23T08:28:52.651Z,5.60
2023-04-23T08:31:26.250Z,6.15
2023-04-23T08:33:53.644Z,4.97
2023-04-23T08:36:20.443Z,4.80
2023-04-23T08:38:46.830Z,5.35
2023-04-23T08:41:16.875Z,4.15
2023-04-23T08:44:06.500Z,4.53
2023-04-23T08:46:36.576Z,4.97
2023-04-23T08:49:03.466Z,3.88
2023-04-23T08:51:33.063Z,4.53
2023-04-23T08:54:05.769Z,3.88
2023-04-23T08:56:32.932Z,4.57
2023-04-23T08:58:59.647Z,4.22
2023-04-23T09:01:26.176Z,4.32
2023-04-23T09:03:53.441Z,4.45
2023-04-23T09:06:19.930Z,4.43
2023-04-23T09:08:46.640Z,4.32
2023-04-23T09:11:13.763Z,3.67
2023-04-23T09:13:41.436Z,3.30
2023-04-23T09:16:07.957Z,3.80
2023-04-23T09:18:35.222Z,3.13
2023-04-23T09:21:04.065Z,3.60
2023-04-23T09:23:31.847Z,2.97
2023-04-23T09:25:58.239Z,2.30
2023-04-23T09:28:37.735Z,2.22
2023-04-23T09:31:07.629Z,1.65
2023-04-23T09:33:36.832Z,2.30
2023-04-23T09:36:15.513Z,2.50
2023-04-23T09:38:42.063Z,2.28
2023-04-23T09:41:25.750Z,2.08
2023-04-23T09:43:56.685Z,1.45
2023-04-23T09:46:38.980Z,1.80
2023-04-23T09:49:10.173Z,1.70
2023-04-23T09:54:23.384Z,1.63
2023-04-23T09:56:51.478Z,1.83
2023-04-23T09:59:29.345Z,1.13
2023-04-23T10:02:02.519Z,1.10
2023-04-23T10:04:29.171Z,1.30
2023-04-23T10:07:13.715Z,0.85
2023-04-23T10:09:43.970Z,1.30
2023-04-23T10:12:21.096Z,1.02
2023-04-23T10:14:59.462Z,1.27
2023-04-23T10:17:26.177Z,0.95
2023-04-23T10:19:52.806Z,1.73
2023-04-23T10:22:21.688Z,0.90
2023-04-23T10:24:56.021Z,1.55
2023-04-23T10:27:40.294Z,1.20
2023-04-23T10:32:42.088Z,0.85
2023-04-23T10:35:10.366Z,1.17
2023-04-23T10:37:37.802Z,1.02
2023-04-23T10:40:14.003Z,1.20
2023-04-23T10:42:42.656Z,1.10
2023-04-23T10:45:25.598Z,1.35
2023-04-23T10:47:57.115Z,1.08
2023-04-23T10:50:26.678Z,1.17
2023-04-23T10:52:54.666Z,0.70
2023-04-23T10:55:26.859Z,0.80
2023-04-23T10:58:01.657Z,1.20
2023-04-23T11:00:45.749Z,0.98
2023-04-23T11:03:32.438Z,0.73
2023-04-23T11:06:03.579Z,1.20
2023-04-23T11:08:33.077Z,1.10
2023-04-23T11:11:01.000Z,0.90
2023-04-23T11:13:29.119Z,0.90
2023-04-23T11:16:18.552Z,0.90
2023-04-23T11:18:58.031Z,0.77
2023-04-23T11:22:03.792Z,1.52
2023-04-23T11:24:37.215Z,1.85
2023-04-23T11:27:07.600Z,0.68
2023-04-23T11:29:34.294Z,0.98
2023-04-23T11:32:03.651Z,1.00
2023-04-23T11:34:32.048Z,0.82
2023-04-23T11:36:59.818Z,0.95
2023-04-23T11:39:26.934Z,0.85
2023-04-23T11:41:53.967Z,0.77
2023-04-23T11:44:21.924Z,1.40
2023-04-23T11:46:49.981Z,1.35
2023-04-23T11:49:20.069Z,1.48
2023-04-23T11:51:47.037Z,1.20
2023-04-23T11:54:14.634Z,1.20
2023-04-23T11:56:41.294Z,1.20
2023-04-23T11:59:08.173Z,1.10
2023-04-23T12:01:42.440Z,1.40
2023-04-23T12:04:18.665Z,1.00
2023-04-23T12:06:47.358Z,1.30
2023-04-23T12:09:15.099Z,1.60
2023-04-23T12:11:43.115Z,0.90
2023-04-23T12:14:11.160Z,1.52
2023-04-23T12:16:45.724Z,1.35
2023-04-23T12:19:26.734Z,1.17
2023-04-23T12:21:55.763Z,1.50
2023-04-23T12:24:26.597Z,1.00
2023-04-23T12:26:54.960Z,1.10
2023-04-23T12:29:25.374Z,0.93
2023-04-23T12:31:53.688Z,0.88
2023-04-23T12:34:21.422Z,0.60
2023-04-23T12:36:53.008Z,0.50
2023-04-23T12:39:30.773Z,0.60
2023-04-23T12:42:04.604Z,0.63
2023-04-23T12:44:34.349Z,0.50
2023-04-23T12:47:09.209Z,0.40
2023-04-23T12:49:36.963Z,0.60
2023-04-23T12:52:04.917Z,0.60
2023-04-23T12:54:33.164Z,0.40
2023-04-23T12:57:03.984Z,0.63
2023-04-23T12:59:31.355Z,0.63
2023-04-23T13:02:02.499Z,1.00
2023-04-23T13:04:30.819Z,0.80
2023-04-23T13:06:57.623Z,0.70
2023-04-23T13:09:26.767Z,1.10
2023-04-23T13:11:54.335Z,0.98
2023-04-23T13:14:21.495Z,0.70
2023-04-23T13:16:48.752Z,0.93
2023-04-23T13:19:16.871Z,0.88
2023-04-23T13:21:43.341Z,0.65
2023-04-23T13:24:09.704Z,0.55
2023-04-23T13:26:37.091Z,0.70
2023-04-23T13:29:03.748Z,1.00
2023-04-23T13:31:31.272Z,0.80
2023-04-23T13:33:57.869Z,1.27
2023-04-23T13:36:25.505Z,0.85
2023-04-23T13:38:52.333Z,1.30
2023-04-23T13:41:18.762Z,0.77
2023-04-23T13:43:45.189Z,0.75
2023-04-23T13:46:11.998Z,0.70
2023-04-23T13:48:38.515Z,0.47
2023-04-23T13:51:10.868Z,0.40
2023-04-23T13:53:43.748Z,0.50
2023-04-23T13:56:10.256Z,0.50
2023-04-23T13:58:36.748Z,0.60
2023-04-23T14:01:04.291Z,0.55
2023-04-23T14:03:30.938Z,0.68
2023-04-23T14:05:58.498Z,0.80
2023-04-23T14:08:24.890Z,0.88
2023-04-23T14:10:51.351Z,0.70
2023-04-23T14:13:17.774Z,0.90
2023-04-23T14:15:44.233Z,1.35
2023-04-23T14:18:10.748Z,1.10
2023-04-23T14:20:37.205Z,0.80
2023-04-23T14:23:30.178Z,2.90
2023-04-23T14:26:04.795Z,1.10
2023-04-23T14:28:40.161Z,0.57
2023-04-23T14:31:07.238Z,0.52
2023-04-23T14:33:33.627Z,0.70
2023-04-23T14:36:00.005Z,0.47
2023-04-23T14:38:28.988Z,0.60
2023-04-23T14:40:55.894Z,0.60
2023-04-23T14:43:22.298Z,0.70
2023-04-23T14:45:48.764Z,0.77
2023-04-23T14:48:15.374Z,0.47
2023-04-23T14:50:41.894Z,0.43
2023-04-23T14:53:10.405Z,0.68
2023-04-23T14:55:36.776Z,0.50
2023-04-23T14:58:03.170Z,0.70
2023-04-23T15:00:29.536Z,0.50
2023-04-23T15:02:56.708Z,0.57
2023-04-23T15:05:23.408Z,0.70
2023-04-23T15:07:51.356Z,0.50
2023-04-23T15:10:17.736Z,0.93
2023-04-23T15:13:05.346Z,0.95
2023-04-23T15:15:49.907Z,1.08
2023-04-23T15:18:16.985Z,1.00
2023-04-23T15:20:44.330Z,1.80
2023-04-23T15:23:11.129Z,0.90
2023-04-23T15:25:39.174Z,1.00
2023-04-23T15:28:06.928Z,0.95
2023-04-23T15:30:33.274Z,1.33
2023-04-23T15:32:59.746Z,1.35
2023-04-23T15:35:27.457Z,0.65
2023-04-23T15:37:54.605Z,1.60
2023-04-23T15:40:21.069Z,1.30
2023-04-23T15:42:49.708Z,0.95
2023-04-23T15:45:16.813Z,1.20
2023-04-23T15:47:43.201Z,1.10
2023-04-23T15:50:10.632Z,1.10
2023-04-23T15:52:37.830Z,1.10
2023-04-23T15:55:05.185Z,1.10
2023-04-23T15:57:31.988Z,1.00
2023-04-23T15:59:58.564Z,0.82
2023-04-23T16:02:25.181Z,1.40
2023-04-23T16:04:51.713Z,1.25
2023-04-23T16:07:18.118Z,1.02
2023-04-23T16:09:44.641Z,0.93
2023-04-23T16:12:11.260Z,0.70
2023-04-23T16:14:37.837Z,0.73
2023-04-23T16:17:04.315Z,1.05
2023-04-23T16:19:31.028Z,1.20
2023-04-23T16:21:57.528Z,1.20
2023-04-23T16:24:24.475Z,1.00
2023-04-23T16:26:50.963Z,1.23
2023-04-23T16:29:22.491Z,1.10
2023-04-23T16:31:49.482Z,1.13
2023-04-23T16:34:15.846Z,1.20
2023-04-23T16:36:42.272Z,1.20
2023-04-23T16:39:08.816Z,1.38
2023-04-23T16:41:35.271Z,1.60
2023-04-23T16:44:01.689Z,1.10
2023-04-23T16:46:30.701Z,0.82
2023-04-23T16:48:57.597Z,0.95
2023-04-23T16:51:24.878Z,0.77
2023-04-23T16:53:51.279Z,1.00
2023-04-23T16:56:17.800Z,1.17
2023-04-23T16:58:44.205Z,1.45
2023-04-23T17:01:10.955Z,1.20
2023-04-23T17:03:39.011Z,1.10
2023-04-23T17:06:11.288Z,0.90
2023-04-23T17:08:38.447Z,2.35
2023-04-23T17:11:08.052Z,2.20
2023-04-23T17:13:34.863Z,2.63
2023-04-23T17:16:01.977Z,3.42
2023-04-23T17:18:28.981Z,2.58
2023-04-23T17:20:55.624Z,1.98
2023-04-23T17:23:22.242Z,1.63
2023-04-23T17:25:49.200Z,1.40
2023-04-23T17:28:18.142Z,1.35
2023-04-23T17:30:45.646Z,1.30
2023-04-23T17:33:12.185Z,1.30
2023-04-23T17:35:38.709Z,1.60
2023-04-23T17:38:05.096Z,1.90
2023-04-23T17:40:31.665Z,2.70
2023-04-23T17:42:57.999Z,1.98
2023-04-23T17:45:24.506Z,1.48
2023-04-23T17:47:50.893Z,2.08
2023-04-23T17:50:17.314Z,2.20
2023-04-23T17:52:44.913Z,1.90
2023-04-23T17:55:11.931Z,2.10
2023-04-23T17:57:38.355Z,1.73
2023-04-23T18:00:09.741Z,1.75
2023-04-23T18:02:40.274Z,1.95
2023-04-23T18:05:12.222Z,1.95
2023-04-23T18:07:40.168Z,2.22
2023-04-23T18:10:07.332Z,2.45
2023-04-23T18:12:34.613Z,2.30
2023-04-23T18:15:01.323Z,2.55
2023-04-23T18:17:27.742Z,2.47
2023-04-23T18:19:54.903Z,1.70
2023-04-23T18:22:21.666Z,1.83
2023-04-23T18:24:48.134Z,2.10
2023-04-23T18:27:14.557Z,2.40
2023-04-23T18:29:41.354Z,2.20
2023-04-23T18:32:08.274Z,2.50
2023-04-23T18:34:39.552Z,2.30
2023-04-23T18:37:28.498Z,2.05
2023-04-23T18:39:55.001Z,1.80
2023-04-23T18:42:21.384Z,1.60
2023-04-23T18:44:47.722Z,2.60
2023-04-23T18:47:18.910Z,1.83
2023-04-23T18:52:19.389Z,1.38
2023-04-23T18:54:45.816Z,1.90
2023-04-23T18:57:12.187Z,1.65
2023-04-23T18:59:38.631Z,1.85
2023-04-23T19:02:05.540Z,2.00
2023-04-23T19:04:35.846Z,2.17
2023-04-23T19:07:02.353Z,2.17
2023-04-23T19:09:28.781Z,2.28
2023-04-23T19:11:55.206Z,1.77
2023-04-23T19:14:21.592Z,2.53
2023-04-23T19:16:48.288Z,2.00
2023-04-23T19:19:14.658Z,2.53
2023-04-23T19:21:41.117Z,1.75
2023-04-23T19:24:07.669Z,3.03
2023-04-23T19:26:34.069Z,2.85
2023-04-23T19:29:00.685Z,2.58
2023-04-23T19:31:28.998Z,2.67
2023-04-23T19:33:56.428Z,3.00
2023-04-23T19:36:22.922Z,2.97
2023-04-23T19:38:49.691Z,3.10
2023-04-23T19:41:16.133Z,3.10
2023-04-23T19:43:42.562Z,3.30
2023-04-23T19:46:08.929Z,3.00
2023-04-23T19:48:35.598Z,3.25
2023-04-23T19:51:02.144Z,3.03
2023-04-23T19:53:28.575Z,3.33
2023-04-23T19:55:54.953Z,3.10
2023-04-23T19:58:21.336Z,3.15
2023-04-23T20:00:47.815Z,1.77
2023-04-23T20:03:14.556Z,2.42
2023-04-23T20:05:43.410Z,1.65
2023-04-23T20:08:15.148Z,1.40
2023-04-23T20:10:42.817Z,1.40
2023-04-23T20:13:09.202Z,0.38
2023-04-23T20:15:36.638Z,0.32
2023-04-23T20:18:03.539Z,0.20
2023-04-23T20:20:29.873Z,0.22
2023-04-23T20:22:56.278Z,0.08
2023-04-23T20:25:25.566Z,0.10
2023-04-23T20:27:52.771Z,0.00
2023-04-23T20:30:27.718Z,0.10
2023-04-23T20:32:54.388Z,0.17
2023-04-23T20:35:20.771Z,0.00
2023-04-23T20:37:47.719Z,0.10
2023-04-23T20:40:15.245Z,0.05
2023-04-23T20:42:42.250Z,0.10
2023-04-23T20:45:09.373Z,0.00
2023-04-23T20:47:35.836Z,0.10
2023-04-23T20:50:02.342Z,0.10
2023-04-23T20:52:28.846Z,0.10
2023-04-23T20:54:55.245Z,0.20
2023-04-23T20:57:21.602Z,0.10
2023-04-23T20:59:47.886Z,0.17
2023-04-23T21:02:15.104Z,0.20
2023-04-23T21:04:41.628Z,0.20
2023-04-23T21:07:08.072Z,0.20
2023-04-23T21:09:34.376Z,0.10
2023-04-23T21:12:00.981Z,0.20
2023-04-23T21:14:28.225Z,0.32
2023-04-23T21:16:56.205Z,0.20
2023-04-23T21:19:22.516Z,0.20
2023-04-23T21:21:48.814Z,0.30
2023-04-23T21:24:15.259Z,0.20
2023-04-23T21:26:42.465Z,0.30
2023-04-23T21:29:08.798Z,0.38
2023-04-23T21:31:43.290Z,0.30
2023-04-23T21:34:09.664Z,0.60
2023-04-23T21:36:36.229Z,0.90
2023-04-23T21:39:02.707Z,0.80
2023-04-23T21:41:29.121Z,0.70
2023-04-23T21:43:55.670Z,1.27
2023-04-23T21:46:23.697Z,0.73
2023-04-23T21:48:53.306Z,1.20
2023-04-23T21:51:21.683Z,1.10
2023-04-23T21:53:48.944Z,1.30
2023-04-23T21:56:16.006Z,1.20
2023-04-23T21:58:42.814Z,1.13
2023-04-23T22:01:09.231Z,1.58
2023-04-23T22:03:38.759Z,1.02
2023-04-23T22:06:06.470Z,0.57
2023-04-23T22:08:33.146Z,0.90
2023-04-23T22:10:59.457Z,1.85
2023-04-23T22:13:25.813Z,1.45
2023-04-23T22:15:52.220Z,1.33
2023-04-23T22:18:18.707Z,1.52
2023-04-23T22:20:48.127Z,1.52
2023-04-23T22:23:14.488Z,1.50
2023-04-23T22:25:40.867Z,1.10
2023-04-23T22:28:07.470Z,1.52
2023-04-23T22:30:33.798Z,1.08
2023-04-23T22:33:00.216Z,1.20
2023-04-23T22:35:26.682Z,2.17
2023-04-23T22:37:53.222Z,1.95
2023-04-23T22:40:19.654Z,2.10
2023-04-23T22:42:46.009Z,1.55
2023-04-23T22:45:12.676Z,1.55
2023-04-23T22:47:39.237Z,2.00
2023-04-23T22:50:06.248Z,1.95
2023-04-23T22:52:32.638Z,1.63
2023-04-23T22:54:58.984Z,1.90
2023-04-23T22:57:25.384Z,0.82
2023-04-23T22:59:51.791Z,1.20
2023-04-23T23:02:18.373Z,1.77
2023-04-23T23:04:44.990Z,2.33
2023-04-23T23:07:11.429Z,1.60
2023-04-23T23:09:37.751Z,2.88
2023-04-23T23:12:04.815Z,2.63
2023-04-23T23:14:33.080Z,3.25
2023-04-23T23:16:59.375Z,2.67
2023-04-23T23:19:27.006Z,2.75
2023-04-23T23:21:53.673Z,3.55
2023-04-23T23:24:20.083Z,4.00
2023-04-23T23:26:46.608Z,2.30
2023-04-23T23:29:12.999Z,3.45
2023-04-23T23:31:39.500Z,2.22
2023-04-23T23:34:05.916Z,3.75
2023-04-23T23:36:33.683Z,3.42
2023-04-23T23:39:00.723Z,4.20
2023-04-23T23:41:27.272Z,3.53
2023-04-23T23:43:53.677Z,4.22
2023-04-23T23:46:20.218Z,4.57
2023-04-23T23:48:47.010Z,4.13
2023-04-23T23:51:13.438Z,4.45
2023-04-23T23:53:39.775Z,3.75
2023-04-23T23:56:06.257Z,5.13
2023-04-23T23:58:32.568Z,4.70
